createdAt,value
2023-02-11T01:57:35.004Z,102776.62
2023-02-11T02:00:25.776Z,102770.91
2023-02-11T02:03:03.456Z,102764.14
2023-02-11T02:05:50.893Z,102766.80
2023-02-11T02:08:42.794Z,102762.64
2023-02-11T02:11:16.538Z,102760.40
2023-02-11T02:13:47.972Z,102764.02
2023-02-11T02:16:19.137Z,102774.11
2023-02-11T02:19:07.294Z,102776.88
2023-02-11T02:22:01.308Z,102776.42
2023-02-11T02:24:31.905Z,102785.26
2023-02-11T02:27:24.123Z,102784.10
2023-02-11T02:30:37.560Z,102784.16
2023-02-11T02:36:19.677Z,102782.16
2023-02-11T02:38:59.551Z,102786.76
2023-02-11T02:41:37.062Z,102780.59
2023-02-11T02:44:08.131Z,102776.30
2023-02-11T02:46:41.255Z,102775.21
2023-02-11T02:49:16.554Z,102769.48
2023-02-11T02:52:02.940Z,102771.34
2023-02-11T02:54:43.066Z,102765.70
2023-02-11T02:57:21.927Z,102763.54
2023-02-11T03:00:00.790Z,102764.70
2023-02-11T03:02:52.308Z,102769.38
2023-02-11T03:05:24.774Z,102766.55
2023-02-11T03:08:32.388Z,102766.70
2023-02-11T03:11:03.401Z,102770.92
2023-02-11T03:13:55.732Z,102775.36
2023-02-11T03:16:30.640Z,102767.58
2023-02-11T03:19:04.406Z,102763.92
2023-02-11T03:21:37.823Z,102765.19
2023-02-11T03:24:18.929Z,102764.14
2023-02-11T03:27:00.213Z,102760.79
2023-02-11T03:29:42.462Z,102768.52
2023-02-11T03:32:18.102Z,102761.47
2023-02-11T03:34:53.005Z,102751.73
2023-02-11T03:37:30.621Z,102752.85
2023-02-11T03:40:25.914Z,102759.69
2023-02-11T03:43:02.551Z,102756.55
2023-02-11T03:45:32.774Z,102754.27
2023-02-11T03:48:07.727Z,102745.77
2023-02-11T03:50:38.107Z,102746.01
2023-02-11T03:53:09.182Z,102745.05
2023-02-11T03:55:40.622Z,102740.55
2023-02-11T03:58:12.966Z,102738.11
2023-02-11T04:00:45.770Z,102740.70
2023-02-11T04:03:14.412Z,102743.27
2023-02-11T04:05:43.902Z,102743.54
2023-02-11T04:08:12.329Z,102738.79
2023-02-11T04:10:42.304Z,102738.90
2023-02-11T04:13:11.530Z,102738.61
2023-02-11T04:15:40.406Z,102735.95
2023-02-11T04:18:08.667Z,102738.03
2023-02-11T04:20:36.961Z,102741.42
2023-02-11T04:23:05.257Z,102738.54
2023-02-11T04:25:33.823Z,102736.68
2023-02-11T04:28:02.446Z,102737.35
2023-02-11T04:30:30.926Z,102737.87
2023-02-11T04:32:59.756Z,102735.55
2023-02-11T04:35:28.446Z,102734.86
2023-02-11T04:37:57.059Z,102735.31
2023-02-11T04:40:25.407Z,102740.31
2023-02-11T04:42:57.720Z,102741.75
2023-02-11T04:45:26.836Z,102744.48
2023-02-11T04:47:55.271Z,102744.08
2023-02-11T04:50:23.842Z,102741.77
2023-02-11T04:52:52.390Z,102734.16
2023-02-11T04:55:20.732Z,102730.46
2023-02-11T04:57:49.078Z,102726.86
2023-02-11T05:00:17.691Z,102728.74
2023-02-11T05:02:46.374Z,102731.65
2023-02-11T05:05:14.692Z,102730.91
2023-02-11T05:07:43.396Z,102735.03
2023-02-11T05:10:12.209Z,102728.15
2023-02-11T05:12:41.381Z,102732.80
2023-02-11T05:15:10.085Z,102733.29
2023-02-11T05:17:39.703Z,102738.64
2023-02-11T05:20:09.062Z,102743.61
2023-02-11T05:22:38.657Z,102745.66
2023-02-11T05:25:07.463Z,102743.47
2023-02-11T05:27:36.239Z,102746.39
2023-02-11T05:30:05.324Z,102745.54
2023-02-11T05:32:34.336Z,102744.23
2023-02-11T05:35:02.847Z,102742.08
2023-02-11T05:37:31.777Z,102744.50
2023-02-11T05:40:00.425Z,102749.17
2023-02-11T05:42:30.020Z,102749.47
2023-02-11T05:44:58.550Z,102750.83
2023-02-11T05:47:27.144Z,102743.80
2023-02-11T05:49:55.398Z,102740.64
2023-02-11T05:52:24.145Z,102738.10
2023-02-11T05:54:52.729Z,102735.16
2023-02-11T05:57:22.285Z,102731.98
2023-02-11T05:59:51.228Z,102729.15
2023-02-11T06:02:21.780Z,102724.60
2023-02-11T06:04:50.447Z,102720.11
2023-02-11T06:07:23.739Z,102720.80
2023-02-11T06:09:52.826Z,102718.79
2023-02-11T06:12:21.661Z,102714.17
2023-02-11T06:14:50.291Z,102713.82
2023-02-11T06:17:20.435Z,102712.15
2023-02-11T06:19:52.132Z,102712.29
2023-02-11T06:22:20.704Z,102714.42
2023-02-11T06:25:00.881Z,102714.95
2023-02-11T06:27:33.074Z,102711.81
2023-02-11T06:30:01.834Z,102714.08
2023-02-11T06:32:43.280Z,102705.09
2023-02-11T06:35:14.686Z,102707.84
2023-02-11T06:37:44.243Z,102702.13
2023-02-11T06:40:13.683Z,102701.72
2023-02-11T06:42:43.365Z,102702.33
2023-02-11T06:45:17.534Z,102697.02
2023-02-11T06:47:47.384Z,102690.09
2023-02-11T06:50:17.372Z,102693.33
2023-02-11T06:52:48.689Z,102695.29
2023-02-11T06:55:30.706Z,102691.40
2023-02-11T06:58:02.347Z,102690.73
2023-02-11T07:00:35.089Z,102692.46
2023-02-11T07:03:10.058Z,102692.14
2023-02-11T07:05:42.816Z,102685.15
2023-02-11T07:08:13.621Z,102684.03
2023-02-11T07:10:45.721Z,102684.20
2023-02-11T07:13:15.169Z,102682.77
2023-02-11T07:15:43.997Z,102681.33
2023-02-11T07:18:16.444Z,102684.56
2023-02-11T07:20:45.518Z,102680.56
2023-02-11T07:23:14.041Z,102678.70
2023-02-11T07:25:42.516Z,102675.09
2023-02-11T07:28:11.476Z,102683.96
2023-02-11T07:30:41.613Z,102677.40
2023-02-11T07:33:10.243Z,102676.88
2023-02-11T07:35:42.314Z,102674.14
2023-02-11T07:38:11.203Z,102670.85
2023-02-11T07:40:40.563Z,102671.23
2023-02-11T07:43:09.646Z,102671.27
2023-02-11T07:45:39.697Z,102669.91
2023-02-11T07:48:08.691Z,102665.38
2023-02-11T07:50:39.053Z,102667.77
2023-02-11T07:53:07.750Z,102664.58
2023-02-11T07:55:38.908Z,102662.55
2023-02-11T07:58:07.369Z,102659.85
2023-02-11T08:00:39.392Z,102656.98
2023-02-11T08:03:08.736Z,102652.36
2023-02-11T08:05:39.516Z,102659.39
2023-02-11T08:08:08.032Z,102652.65
2023-02-11T08:10:37.425Z,102649.91
2023-02-11T08:13:06.385Z,102653.48
2023-02-11T08:15:39.469Z,102645.33
2023-02-11T08:18:09.188Z,102643.52
2023-02-11T08:20:37.737Z,102642.41
2023-02-11T08:23:08.801Z,102640.82
2023-02-11T08:25:37.136Z,102642.47
2023-02-11T08:28:05.454Z,102643.59
2023-02-11T08:30:34.013Z,102639.92
2023-02-11T08:33:03.007Z,102636.80
2023-02-11T08:35:33.300Z,102629.05
2023-02-11T08:38:03.028Z,102628.11
2023-02-11T08:40:31.503Z,102628.85
2023-02-11T08:43:06.266Z,102629.81
2023-02-11T08:45:37.737Z,102628.71
2023-02-11T08:48:06.583Z,102626.06
2023-02-11T08:50:38.941Z,102627.27
2023-02-11T08:53:07.535Z,102627.41
2023-02-11T08:55:37.244Z,102620.38
2023-02-11T08:58:05.829Z,102616.36
2023-02-11T09:00:34.486Z,102612.92
2023-02-11T09:03:04.301Z,102612.45
2023-02-11T09:05:32.796Z,102610.20
2023-02-11T09:08:03.172Z,102610.77
2023-02-11T09:10:35.524Z,102604.77
2023-02-11T09:13:04.859Z,102600.15
2023-02-11T09:15:34.182Z,102598.57
2023-02-11T09:18:06.188Z,102601.38
2023-02-11T09:20:36.028Z,102597.84
2023-02-11T09:23:07.035Z,102586.89
2023-02-11T09:25:40.825Z,102585.16
2023-02-11T09:28:09.477Z,102582.07
2023-02-11T09:30:42.224Z,102576.86
2023-02-11T09:33:15.431Z,102571.63
2023-02-11T09:35:54.290Z,102566.02
2023-02-11T09:38:22.938Z,102562.19
2023-02-11T09:40:52.780Z,102559.95
2023-02-11T09:43:33.565Z,102558.92
2023-02-11T09:46:02.576Z,102558.23
2023-02-11T09:48:33.836Z,102555.60
2023-02-11T09:51:02.215Z,102548.71
2023-02-11T09:53:42.382Z,102548.20
2023-02-11T09:56:14.940Z,102546.64
2023-02-11T09:58:53.245Z,102540.14
2023-02-11T10:01:32.871Z,102531.85
2023-02-11T10:04:10.725Z,102527.60
2023-02-11T10:07:28.759Z,102524.42
2023-02-11T10:10:26.771Z,102515.42
2023-02-11T10:13:14.737Z,102513.66
2023-02-11T10:15:52.543Z,102504.86
2023-02-11T10:18:49.182Z,102498.00
2023-02-11T10:21:38.014Z,102495.05
2023-02-11T10:24:14.081Z,102492.61
2023-02-11T10:26:43.236Z,102491.23
2023-02-11T10:29:27.088Z,102485.23
2023-02-11T10:31:58.212Z,102481.53
2023-02-11T10:34:34.125Z,102476.45
2023-02-11T10:37:03.202Z,102466.41
2023-02-11T10:39:32.162Z,102464.31
2023-02-11T10:42:04.132Z,102461.52
2023-02-11T10:44:44.544Z,102457.13
2023-02-11T10:47:33.904Z,102451.84
2023-02-11T10:50:17.702Z,102445.14
2023-02-11T10:52:46.068Z,102446.38
2023-02-11T10:55:21.631Z,102447.79
2023-02-11T10:58:00.883Z,102445.66
2023-02-11T11:00:39.057Z,102440.89
2023-02-11T11:03:22.500Z,102440.37
2023-02-11T11:06:00.812Z,102429.60
2023-02-11T11:08:48.946Z,102424.11
2023-02-11T11:11:23.056Z,102414.39
2023-02-11T11:14:01.705Z,102410.86
2023-02-11T11:16:35.329Z,102408.56
2023-02-11T11:19:06.788Z,102403.06
2023-02-11T11:21:42.692Z,102404.30
2023-02-11T11:24:21.800Z,102401.44
2023-02-11T11:26:54.024Z,102399.30
2023-02-11T11:29:43.995Z,102396.45
2023-02-11T11:32:18.908Z,102387.39
2023-02-11T11:34:56.313Z,102379.59
2023-02-11T11:37:27.524Z,102376.03
2023-02-11T11:40:24.894Z,102371.24
2023-02-11T11:43:27.058Z,102360.59
2023-02-11T11:45:57.510Z,102361.23
2023-02-11T11:48:35.520Z,102350.58
2023-02-11T11:51:11.869Z,102347.04
2023-02-11T11:53:41.992Z,102341.06
2023-02-11T11:56:47.668Z,102341.64
2023-02-11T11:59:19.717Z,102339.05
2023-02-11T12:02:15.864Z,102335.52
2023-02-11T12:04:50.957Z,102326.66
2023-02-11T12:07:41.801Z,102323.66
2023-02-11T12:10:32.260Z,102318.36
2023-02-11T12:13:05.736Z,102318.04
2023-02-11T12:16:04.763Z,102310.27
2023-02-11T12:18:45.558Z,102306.92
2023-02-11T12:21:29.915Z,102310.80
2023-02-11T12:24:17.329Z,102309.22
2023-02-11T12:26:55.368Z,102306.02
2023-02-11T12:29:55.960Z,102298.73
2023-02-11T12:32:45.168Z,102298.84
2023-02-11T12:35:35.782Z,102295.07
2023-02-11T12:38:12.061Z,102288.45
2023-02-11T12:40:45.431Z,102288.36
2023-02-11T12:43:35.981Z,102280.70
2023-02-11T12:46:29.052Z,102277.98
2023-02-11T12:49:10.106Z,102273.69
2023-02-11T12:52:16.694Z,102270.24
2023-02-11T12:55:01.208Z,102267.20
2023-02-11T12:57:32.178Z,102270.04
2023-02-11T13:00:05.912Z,102257.64
2023-02-11T13:02:39.122Z,102261.85
2023-02-11T13:05:20.103Z,102260.89
2023-02-11T13:07:48.489Z,102258.20
2023-02-11T13:10:42.030Z,102260.49
2023-02-11T13:13:23.070Z,102260.14
2023-02-11T13:16:03.400Z,102262.73
2023-02-11T13:19:23.518Z,102259.44
2023-02-11T13:22:19.840Z,102251.22
2023-02-11T13:24:51.991Z,102245.90
2023-02-11T13:27:24.171Z,102241.18
2023-02-11T13:30:14.845Z,102241.19
2023-02-11T13:33:34.334Z,102239.08
2023-02-11T13:36:04.638Z,102228.42
2023-02-11T13:38:34.150Z,102228.35
2023-02-11T13:41:25.452Z,102230.40
2023-02-11T13:44:27.119Z,102229.61
2023-02-11T13:47:00.289Z,102236.76
2023-02-11T13:49:43.252Z,102234.31
2023-02-11T13:52:35.042Z,102227.61
2023-02-11T13:55:23.180Z,102221.27
2023-02-11T13:58:08.653Z,102214.20
2023-02-11T14:00:37.241Z,102214.71
2023-02-11T14:03:31.040Z,102211.86
2023-02-11T14:06:27.259Z,102214.68
2023-02-11T14:09:09.361Z,102212.91
2023-02-11T14:11:50.110Z,102211.50
2023-02-11T14:14:31.384Z,102207.45
2023-02-11T14:17:10.206Z,102203.79
2023-02-11T14:19:43.789Z,102195.90
2023-02-11T14:22:18.265Z,102190.30
2023-02-11T14:24:51.366Z,102185.41
2023-02-11T14:27:23.332Z,102183.67
2023-02-11T14:30:15.868Z,102182.81
2023-02-11T14:33:12.648Z,102178.23
2023-02-11T14:36:01.856Z,102177.71
2023-02-11T14:38:55.427Z,102184.80
2023-02-11T14:41:51.153Z,102174.75
2023-02-11T14:44:20.101Z,102167.56
2023-02-11T14:46:50.638Z,102165.84
2023-02-11T14:49:39.776Z,102166.41
2023-02-11T14:52:23.658Z,102171.20
2023-02-11T14:54:52.016Z,102168.41
2023-02-11T14:57:20.510Z,102164.73
2023-02-11T15:00:06.673Z,102165.47
2023-02-11T15:02:38.353Z,102165.13
2023-02-11T15:05:26.335Z,102166.05
2023-02-11T15:07:59.404Z,102167.13
2023-02-11T15:10:37.021Z,102161.69
2023-02-11T15:13:07.567Z,102162.95
2023-02-11T15:15:38.117Z,102164.73
2023-02-11T15:18:09.813Z,102163.86
2023-02-11T15:20:38.294Z,102156.98
2023-02-11T15:23:09.525Z,102156.47
2023-02-11T15:25:46.132Z,102156.64
2023-02-11T15:28:24.358Z,102152.77
2023-02-11T15:31:14.055Z,102152.23
2023-02-11T15:33:42.582Z,102152.41
2023-02-11T15:36:15.554Z,102153.46
2023-02-11T15:38:44.042Z,102148.88
2023-02-11T15:41:36.369Z,102149.75
2023-02-11T15:44:04.825Z,102150.45
2023-02-11T15:46:38.959Z,102153.98
2023-02-11T15:49:16.352Z,102156.43
2023-02-11T15:51:45.870Z,102152.73
2023-02-11T15:54:20.922Z,102150.27
2023-02-11T15:56:55.640Z,102145.84
2023-02-11T16:00:04.613Z,102150.42
2023-02-11T16:02:45.339Z,102148.29
2023-02-11T16:05:34.246Z,102151.45
2023-02-11T16:08:24.632Z,102155.13
2023-02-11T16:11:09.000Z,102157.04
2023-02-11T16:13:45.740Z,102149.63
2023-02-11T16:16:25.110Z,102156.98
2023-02-11T16:19:05.827Z,102149.92
2023-02-11T16:21:39.455Z,102148.48
2023-02-11T16:24:10.704Z,102142.80
2023-02-11T16:26:43.305Z,102145.60
2023-02-11T16:29:13.988Z,102141.52
2023-02-11T16:31:44.119Z,102140.80
2023-02-11T16:34:20.948Z,102136.23
2023-02-11T16:36:49.925Z,102132.86
2023-02-11T16:39:21.843Z,102130.75
2023-02-11T16:41:54.160Z,102127.93
2023-02-11T16:44:22.738Z,102121.23
2023-02-11T16:46:53.651Z,102121.75
2023-02-11T16:49:24.944Z,102119.77
2023-02-11T16:52:01.292Z,102121.36
2023-02-11T16:54:33.993Z,102120.63
2023-02-11T16:57:03.237Z,102121.48
2023-02-11T16:59:32.301Z,102114.45
2023-02-11T17:02:00.984Z,102105.52
2023-02-11T17:04:31.130Z,102102.20
2023-02-11T17:06:59.646Z,102098.00
2023-02-11T17:09:30.906Z,102099.40
2023-02-11T17:12:02.166Z,102099.21
2023-02-11T17:14:30.878Z,102099.55
2023-02-11T17:16:59.302Z,102099.35
2023-02-11T17:19:29.155Z,102091.94
2023-02-11T17:21:57.680Z,102093.14
2023-02-11T17:24:26.418Z,102088.20
2023-02-11T17:26:55.278Z,102080.27
2023-02-11T17:29:25.411Z,102082.00
2023-02-11T17:31:54.389Z,102078.48
2023-02-11T17:34:23.304Z,102076.56
2023-02-11T17:36:52.441Z,102073.05
2023-02-11T17:39:21.364Z,102070.94
2023-02-11T17:41:49.781Z,102070.23
2023-02-11T17:44:19.390Z,102069.31
2023-02-11T17:46:47.719Z,102075.43
2023-02-11T17:49:17.418Z,102085.05
2023-02-11T17:51:50.631Z,102090.80
2023-02-11T17:54:19.517Z,102092.15
2023-02-11T17:56:51.078Z,102086.46
2023-02-11T17:59:21.566Z,102083.96
2023-02-11T18:01:50.127Z,102082.52
2023-02-11T18:04:20.982Z,102085.13
2023-02-11T18:06:50.514Z,102081.05
2023-02-11T18:09:20.712Z,102074.33
2023-02-11T18:11:52.733Z,102071.64
2023-02-11T18:14:22.130Z,102065.09
2023-02-11T18:16:52.497Z,102065.93
2023-02-11T18:19:21.530Z,102060.27
2023-02-11T18:21:51.250Z,102054.43
2023-02-11T18:30:38.303Z,102041.92
2023-02-11T18:33:08.492Z,102037.54
2023-02-11T18:35:39.961Z,102037.33
2023-02-11T18:38:07.948Z,102035.90
2023-02-11T18:40:40.106Z,102029.55
2023-02-11T18:43:08.222Z,102022.84
2023-02-11T18:45:35.612Z,102022.11
2023-02-11T18:48:07.737Z,102016.31
2023-02-11T18:50:37.195Z,102012.63
2023-02-11T18:53:05.924Z,102008.56
2023-02-11T18:55:32.881Z,102006.23
2023-02-11T18:58:01.165Z,102006.89
2023-02-11T19:00:30.765Z,101999.67
2023-02-11T19:02:58.144Z,101995.27
2023-02-11T19:05:32.753Z,101994.36
2023-02-11T19:08:00.512Z,101995.52
2023-02-11T19:10:28.046Z,101990.36
2023-02-11T19:12:55.894Z,101982.92
2023-02-11T19:15:25.340Z,101986.73
2023-02-11T19:17:52.876Z,101984.98
2023-02-11T19:20:19.926Z,101981.95
2023-02-11T19:22:48.540Z,101979.80
2023-02-11T19:25:17.253Z,101984.84
2023-02-11T19:28:05.460Z,101989.16
2023-02-11T19:30:33.000Z,101988.45
2023-02-11T19:33:01.611Z,101984.42
2023-02-11T19:35:30.335Z,101975.16
2023-02-11T19:37:57.751Z,101969.94
2023-02-11T19:40:24.654Z,101963.84
2023-02-11T19:42:52.441Z,101960.98
2023-02-11T19:45:19.955Z,101961.31
2023-02-11T19:47:46.930Z,101959.86
2023-02-11T19:50:14.014Z,101950.20
2023-02-11T19:52:42.861Z,101948.06
2023-02-11T19:55:10.135Z,101946.14
2023-02-11T19:57:38.191Z,101947.14
2023-02-11T20:00:26.344Z,101946.39
2023-02-11T20:02:57.325Z,101940.78
2023-02-11T20:05:24.344Z,101939.20
2023-02-11T20:07:52.068Z,101940.77
2023-02-11T20:10:19.256Z,101939.16
2023-02-11T20:12:46.312Z,101930.87
2023-02-11T20:15:13.543Z,101926.28
2023-02-11T20:17:41.780Z,101921.67
2023-02-11T20:20:12.431Z,101916.92
2023-02-11T20:22:40.037Z,101921.64
2023-02-11T20:25:07.776Z,101919.20
2023-02-11T20:27:35.542Z,101914.99
2023-02-11T20:30:03.766Z,101909.01
2023-02-11T20:32:37.515Z,101904.42
2023-02-11T20:35:05.483Z,101902.98
2023-02-11T20:37:33.192Z,101901.72
2023-02-11T20:40:00.400Z,101897.33
2023-02-11T20:42:27.817Z,101891.73
2023-02-11T20:44:55.016Z,101893.66
2023-02-11T20:47:24.366Z,101889.12
2023-02-11T20:49:53.930Z,101884.08
2023-02-11T20:52:21.532Z,101879.94
2023-02-11T20:54:48.614Z,101885.10
2023-02-11T20:57:15.658Z,101880.98
2023-02-11T20:59:43.015Z,101879.81
2023-02-11T21:02:11.836Z,101874.48
2023-02-11T21:04:40.179Z,101874.17
2023-02-11T21:07:07.439Z,101870.38
2023-02-11T21:09:35.094Z,101865.15
2023-02-11T21:12:05.018Z,101864.09
2023-02-11T21:14:33.794Z,101860.27
2023-02-11T21:17:01.045Z,101856.95
2023-02-11T21:19:28.399Z,101853.80
2023-02-11T21:21:56.926Z,101852.20
2023-02-11T21:24:24.453Z,101849.40
2023-02-11T21:26:53.346Z,101848.15
2023-02-11T21:29:20.784Z,101848.81
2023-02-11T21:31:47.982Z,101844.76
2023-02-11T21:34:15.829Z,101843.50
2023-02-11T21:36:44.886Z,101839.10
2023-02-11T21:39:13.241Z,101840.83
2023-02-11T21:41:42.060Z,101839.25
2023-02-11T21:44:11.823Z,101834.15
2023-02-11T21:46:39.910Z,101825.23
2023-02-11T21:49:07.316Z,101820.65
2023-02-11T21:51:37.767Z,101825.18
2023-02-11T21:54:05.292Z,101822.33
2023-02-11T21:56:34.923Z,101814.96
2023-02-11T21:59:03.026Z,101814.58
2023-02-11T22:01:32.165Z,101811.75
2023-02-11T22:03:59.544Z,101816.29
2023-02-11T22:06:31.040Z,101815.06
2023-02-11T22:09:00.300Z,101804.91
2023-02-11T22:11:30.112Z,101807.36
2023-02-11T22:13:58.663Z,101810.51
2023-02-11T22:16:26.159Z,101813.48
2023-02-11T22:18:53.595Z,101807.71
2023-02-11T22:21:21.621Z,101807.36
2023-02-11T22:23:49.615Z,101799.47
2023-02-11T22:26:21.691Z,101799.09
2023-02-11T22:28:49.544Z,101796.06
2023-02-11T22:31:18.754Z,101790.05
2023-02-11T22:33:46.188Z,101780.74
2023-02-11T22:36:16.164Z,101770.40
2023-02-11T22:38:43.791Z,101761.64
2023-02-11T22:41:11.622Z,101764.80
2023-02-11T22:43:39.614Z,101763.42
2023-02-11T22:46:09.494Z,101770.83
2023-02-11T22:48:39.537Z,101792.02
2023-02-11T22:51:11.226Z,101798.71
2023-02-11T22:53:38.631Z,101798.73
2023-02-11T22:56:14.713Z,101798.92
2023-02-11T22:58:42.344Z,101800.67
2023-02-11T23:01:09.750Z,101807.18
2023-02-11T23:03:38.591Z,101803.15
2023-02-11T23:06:06.340Z,101801.39
2023-02-11T23:08:33.503Z,101794.89
2023-02-11T23:11:28.058Z,101793.34
2023-02-11T23:13:58.606Z,101793.89
2023-02-11T23:16:27.801Z,101792.89
2023-02-11T23:18:54.802Z,101779.11
2023-02-11T23:21:25.154Z,101768.45
2023-02-11T23:23:57.015Z,101754.83
2023-02-11T23:26:23.979Z,101740.81
2023-02-11T23:28:51.251Z,101743.96
2023-02-11T23:31:20.544Z,101744.84
2023-02-11T23:33:48.205Z,101744.86
2023-02-11T23:44:03.578Z,101745.48
2023-02-11T23:46:32.519Z,101740.04
2023-02-11T23:49:01.108Z,101736.35
2023-02-11T23:51:29.901Z,101738.28
2023-02-11T23:53:58.691Z,101732.65
2023-02-11T23:56:27.803Z,101731.22
2023-02-11T23:58:57.391Z,101727.69
